sensor_id;sensor_type;location;lat;lon;timestamp;temperature;humidity
58582;DHT22;44361;51.476;5.700;2024-02-28T00:01:52;0.30;99.90
58582;DHT22;44361;51.476;5.700;2024-02-28T00:04:19;0.30;99.90
58582;DHT22;44361;51.476;5.700;2024-02-28T00:06:44;0.30;99.90
58582;DHT22;44361;51.476;5.700;2024-02-28T00:09:12;0.30;99.90
58582;DHT22;44361;51.476;5.700;2024-02-28T00:11:46;0.30;99.90
58582;DHT22;44361;51.476;5.700;2024-02-28T00:14:12;0.30;99.90
58582;DHT22;44361;51.476;5.700;2024-02-28T00:16:41;0.20;99.90
58582;DHT22;44361;51.476;5.700;2024-02-28T00:19:08;0.20;99.90
58582;DHT22;44361;51.476;5.700;2024-02-28T00:21:33;0.20;99.90
58582;DHT22;44361;51.476;5.700;2024-02-28T00:23:59;0.20;99.90
58582;DHT22;44361;51.476;5.700;2024-02-28T00:26:25;0.20;99.90
58582;DHT22;44361;51.476;5.700;2024-02-28T00:28:51;0.20;99.90
58582;DHT22;44361;51.476;5.700;2024-02-28T00:31:16;0.20;99.90
58582;DHT22;44361;51.476;5.700;2024-02-28T00:33:42;0.20;99.90
58582;DHT22;44361;51.476;5.700;2024-02-28T00:36:07;0.30;99.90
58582;DHT22;44361;51.476;5.700;2024-02-28T00:38:34;0.30;99.90
58582;DHT22;44361;51.476;5.700;2024-02-28T00:40:59;0.30;99.90
58582;DHT22;44361;51.476;5.700;2024-02-28T00:43:25;0.40;99.90
58582;DHT22;44361;51.476;5.700;2024-02-28T00:45:50;0.50;99.90
58582;DHT22;44361;51.476;5.700;2024-02-28T00:48:16;0.50;99.90
58582;DHT22;44361;51.476;5.700;2024-02-28T00:50:42;0.60;99.90
58582;DHT22;44361;51.476;5.700;2024-02-28T00:53:07;0.70;99.90
58582;DHT22;44361;51.476;5.700;2024-02-28T00:55:33;0.80;99.90
58582;DHT22;44361;51.476;5.700;2024-02-28T00:57:58;0.80;99.90
58582;DHT22;44361;51.476;5.700;2024-02-28T01:00:24;0.90;99.90
58582;DHT22;44361;51.476;5.700;2024-02-28T01:02:49;0.90;99.90
58582;DHT22;44361;51.476;5.700;2024-02-28T01:05:15;1.00;99.90
58582;DHT22;44361;51.476;5.700;2024-02-28T01:07:40;1.00;99.90
58582;DHT22;44361;51.476;5.700;2024-02-28T01:10:07;1.00;99.90
58582;DHT22;44361;51.476;5.700;2024-02-28T01:12:33;1.00;99.90
58582;DHT22;44361;51.476;5.700;2024-02-28T01:14:58;0.90;99.90
58582;DHT22;44361;51.476;5.700;2024-02-28T01:17:24;0.90;99.90
58582;DHT22;44361;51.476;5.700;2024-02-28T01:19:49;0.80;99.90
58582;DHT22;44361;51.476;5.700;2024-02-28T01:22:15;0.80;99.90
58582;DHT22;44361;51.476;5.700;2024-02-28T01:24:40;0.80;99.90
58582;DHT22;44361;51.476;5.700;2024-02-28T01:27:06;0.80;99.90
58582;DHT22;44361;51.476;5.700;2024-02-28T01:29:32;0.70;99.90
58582;DHT22;44361;51.476;5.700;2024-02-28T01:31:57;0.70;99.90
58582;DHT22;44361;51.476;5.700;2024-02-28T01:34:23;0.60;99.90
58582;DHT22;44361;51.476;5.700;2024-02-28T01:36:49;0.60;99.90
58582;DHT22;44361;51.476;5.700;2024-02-28T01:39:14;0.60;99.90
58582;DHT22;44361;51.476;5.700;2024-02-28T01:41:40;0.50;99.90
58582;DHT22;44361;51.476;5.700;2024-02-28T01:44:06;0.50;99.90
58582;DHT22;44361;51.476;5.700;2024-02-28T01:46:31;0.40;99.90
58582;DHT22;44361;51.476;5.700;2024-02-28T01:48:58;0.40;99.90
58582;DHT22;44361;51.476;5.700;2024-02-28T01:51:25;0.40;99.90
58582;DHT22;44361;51.476;5.700;2024-02-28T01:53:54;0.40;99.90
58582;DHT22;44361;51.476;5.700;2024-02-28T01:56:20;0.30;99.90
58582;DHT22;44361;51.476;5.700;2024-02-28T01:58:48;0.30;99.90
58582;DHT22;44361;51.476;5.700;2024-02-28T02:01:15;0.30;99.90
58582;DHT22;44361;51.476;5.700;2024-02-28T02:03:42;0.30;99.90
58582;DHT22;44361;51.476;5.700;2024-02-28T02:06:08;0.30;99.90
58582;DHT22;44361;51.476;5.700;2024-02-28T02:08:34;0.30;99.90
58582;DHT22;44361;51.476;5.700;2024-02-28T02:11:00;0.30;99.90
58582;DHT22;44361;51.476;5.700;2024-02-28T02:13:25;0.20;99.90
58582;DHT22;44361;51.476;5.700;2024-02-28T02:15:51;0.10;99.90
58582;DHT22;44361;51.476;5.700;2024-02-28T02:18:16;0.00;99.90
58582;DHT22;44361;51.476;5.700;2024-02-28T02:20:44;0.00;99.90
58582;DHT22;44361;51.476;5.700;2024-02-28T02:23:12;0.00;99.90
58582;DHT22;44361;51.476;5.700;2024-02-28T02:25:45;0.00;99.90
58582;DHT22;44361;51.476;5.700;2024-02-28T02:28:11;0.00;99.90
58582;DHT22;44361;51.476;5.700;2024-02-28T02:30:38;0.00;99.90
58582;DHT22;44361;51.476;5.700;2024-02-28T02:33:04;0.10;99.90
58582;DHT22;44361;51.476;5.700;2024-02-28T02:35:29;0.00;99.90
58582;DHT22;44361;51.476;5.700;2024-02-28T02:37:55;0.00;99.90
58582;DHT22;44361;51.476;5.700;2024-02-28T02:40:20;0.00;99.90
58582;DHT22;44361;51.476;5.700;2024-02-28T02:42:46;0.00;99.90
58582;DHT22;44361;51.476;5.700;2024-02-28T02:45:11;0.00;99.90
58582;DHT22;44361;51.476;5.700;2024-02-28T02:47:37;0.00;99.90
58582;DHT22;44361;51.476;5.700;2024-02-28T02:50:03;0.10;99.90
58582;DHT22;44361;51.476;5.700;2024-02-28T02:52:29;0.10;99.90
58582;DHT22;44361;51.476;5.700;2024-02-28T02:54:54;0.10;99.90
58582;DHT22;44361;51.476;5.700;2024-02-28T02:57:20;0.20;99.90
58582;DHT22;44361;51.476;5.700;2024-02-28T02:59:46;0.10;99.90
58582;DHT22;44361;51.476;5.700;2024-02-28T03:02:11;0.10;99.90
58582;DHT22;44361;51.476;5.700;2024-02-28T03:04:37;0.10;99.90
58582;DHT22;44361;51.476;5.700;2024-02-28T03:07:02;0.20;99.90
58582;DHT22;44361;51.476;5.700;2024-02-28T03:09:28;0.20;99.90
58582;DHT22;44361;51.476;5.700;2024-02-28T03:11:53;0.20;99.90
58582;DHT22;44361;51.476;5.700;2024-02-28T03:14:19;0.20;99.90
58582;DHT22;44361;51.476;5.700;2024-02-28T03:16:47;0.20;99.90
58582;DHT22;44361;51.476;5.700;2024-02-28T03:19:14;0.10;99.90
58582;DHT22;44361;51.476;5.700;2024-02-28T03:21:40;0.10;99.90
58582;DHT22;44361;51.476;5.700;2024-02-28T03:24:06;0.10;99.90
58582;DHT22;44361;51.476;5.700;2024-02-28T03:26:32;0.10;99.90
58582;DHT22;44361;51.476;5.700;2024-02-28T03:28:59;0.10;99.90
58582;DHT22;44361;51.476;5.700;2024-02-28T03:31:25;0.20;99.90
58582;DHT22;44361;51.476;5.700;2024-02-28T03:33:51;0.20;99.90
58582;DHT22;44361;51.476;5.700;2024-02-28T03:36:16;0.20;99.90
58582;DHT22;44361;51.476;5.700;2024-02-28T03:38:42;0.10;99.90
58582;DHT22;44361;51.476;5.700;2024-02-28T03:41:07;0.20;99.90
58582;DHT22;44361;51.476;5.700;2024-02-28T03:43:33;0.10;99.90
58582;DHT22;44361;51.476;5.700;2024-02-28T03:45:59;0.10;99.90
58582;DHT22;44361;51.476;5.700;2024-02-28T03:48:24;0.10;99.90
58582;DHT22;44361;51.476;5.700;2024-02-28T03:50:50;0.10;99.90
58582;DHT22;44361;51.476;5.700;2024-02-28T03:53:16;0.10;99.90
58582;DHT22;44361;51.476;5.700;2024-02-28T03:55:41;0.10;99.90
58582;DHT22;44361;51.476;5.700;2024-02-28T03:58:09;0.10;99.90
58582;DHT22;44361;51.476;5.700;2024-02-28T04:00:35;0.10;99.90
58582;DHT22;44361;51.476;5.700;2024-02-28T04:03:01;0.10;99.90
58582;DHT22;44361;51.476;5.700;2024-02-28T04:05:28;0.10;99.90
58582;DHT22;44361;51.476;5.700;2024-02-28T04:07:54;0.20;99.90
58582;DHT22;44361;51.476;5.700;2024-02-28T04:10:20;0.20;99.90
58582;DHT22;44361;51.476;5.700;2024-02-28T04:12:45;0.20;99.90
58582;DHT22;44361;51.476;5.700;2024-02-28T04:15:11;0.20;99.90
58582;DHT22;44361;51.476;5.700;2024-02-28T04:17:40;0.20;99.90
58582;DHT22;44361;51.476;5.700;2024-02-28T04:20:10;0.20;99.90
58582;DHT22;44361;51.476;5.700;2024-02-28T04:22:36;0.20;99.90
58582;DHT22;44361;51.476;5.700;2024-02-28T04:25:01;0.20;99.90
58582;DHT22;44361;51.476;5.700;2024-02-28T04:27:27;0.20;99.90
58582;DHT22;44361;51.476;5.700;2024-02-28T04:29:52;0.20;99.90
58582;DHT22;44361;51.476;5.700;2024-02-28T04:32:18;0.20;99.90
58582;DHT22;44361;51.476;5.700;2024-02-28T04:34:44;0.20;99.90
58582;DHT22;44361;51.476;5.700;2024-02-28T04:37:09;0.20;99.90
58582;DHT22;44361;51.476;5.700;2024-02-28T04:39:35;0.20;99.90
58582;DHT22;44361;51.476;5.700;2024-02-28T04:42:00;0.20;99.90
58582;DHT22;44361;51.476;5.700;2024-02-28T04:44:26;0.30;99.90
58582;DHT22;44361;51.476;5.700;2024-02-28T04:46:52;0.30;99.90
58582;DHT22;44361;51.476;5.700;2024-02-28T04:49:17;0.30;99.90
58582;DHT22;44361;51.476;5.700;2024-02-28T04:51:43;0.30;99.90
58582;DHT22;44361;51.476;5.700;2024-02-28T04:54:08;0.40;99.90
58582;DHT22;44361;51.476;5.700;2024-02-28T04:56:39;0.30;99.90
58582;DHT22;44361;51.476;5.700;2024-02-28T04:59:05;0.30;99.90
58582;DHT22;44361;51.476;5.700;2024-02-28T05:01:31;0.30;99.90
58582;DHT22;44361;51.476;5.700;2024-02-28T05:03:56;0.30;99.90
58582;DHT22;44361;51.476;5.700;2024-02-28T05:06:22;0.30;99.90
58582;DHT22;44361;51.476;5.700;2024-02-28T05:08:47;0.30;99.90
58582;DHT22;44361;51.476;5.700;2024-02-28T05:11:13;0.30;99.90
58582;DHT22;44361;51.476;5.700;2024-02-28T05:13:38;0.30;99.90
58582;DHT22;44361;51.476;5.700;2024-02-28T05:16:04;0.30;99.90
58582;DHT22;44361;51.476;5.700;2024-02-28T05:18:38;0.40;99.90
58582;DHT22;44361;51.476;5.700;2024-02-28T05:21:03;0.40;99.90
58582;DHT22;44361;51.476;5.700;2024-02-28T05:23:29;0.40;99.90
58582;DHT22;44361;51.476;5.700;2024-02-28T05:25:56;0.40;99.90
58582;DHT22;44361;51.476;5.700;2024-02-28T05:28:23;0.50;99.90
58582;DHT22;44361;51.476;5.700;2024-02-28T05:30:48;0.40;99.90
58582;DHT22;44361;51.476;5.700;2024-02-28T05:33:14;0.30;99.90
58582;DHT22;44361;51.476;5.700;2024-02-28T05:35:39;0.30;99.90
58582;DHT22;44361;51.476;5.700;2024-02-28T05:38:05;0.30;99.90
58582;DHT22;44361;51.476;5.700;2024-02-28T05:40:30;0.30;99.90
58582;DHT22;44361;51.476;5.700;2024-02-28T05:42:56;0.30;99.90
58582;DHT22;44361;51.476;5.700;2024-02-28T05:45:21;0.30;99.90
58582;DHT22;44361;51.476;5.700;2024-02-28T05:47:47;0.30;99.90
58582;DHT22;44361;51.476;5.700;2024-02-28T05:50:12;0.30;99.90
58582;DHT22;44361;51.476;5.700;2024-02-28T05:52:41;0.40;99.90
58582;DHT22;44361;51.476;5.700;2024-02-28T05:55:08;0.40;99.90
58582;DHT22;44361;51.476;5.700;2024-02-28T05:57:33;0.40;99.90
58582;DHT22;44361;51.476;5.700;2024-02-28T05:59:59;0.40;99.90
58582;DHT22;44361;51.476;5.700;2024-02-28T06:02:25;0.40;99.90
58582;DHT22;44361;51.476;5.700;2024-02-28T06:04:50;0.40;99.90
58582;DHT22;44361;51.476;5.700;2024-02-28T06:07:16;0.40;99.90
58582;DHT22;44361;51.476;5.700;2024-02-28T06:09:41;0.50;99.90
58582;DHT22;44361;51.476;5.700;2024-02-28T06:12:07;0.50;99.90
58582;DHT22;44361;51.476;5.700;2024-02-28T06:14:33;0.60;99.90
58582;DHT22;44361;51.476;5.700;2024-02-28T06:16:58;0.60;99.90
58582;DHT22;44361;51.476;5.700;2024-02-28T06:19:24;0.60;99.90
58582;DHT22;44361;51.476;5.700;2024-02-28T06:21:49;0.70;99.90
58582;DHT22;44361;51.476;5.700;2024-02-28T06:24:15;0.70;99.90
58582;DHT22;44361;51.476;5.700;2024-02-28T06:26:41;0.70;99.90
58582;DHT22;44361;51.476;5.700;2024-02-28T06:29:08;0.70;99.90
58582;DHT22;44361;51.476;5.700;2024-02-28T06:31:34;0.80;99.90
58582;DHT22;44361;51.476;5.700;2024-02-28T06:33:59;0.80;99.90
58582;DHT22;44361;51.476;5.700;2024-02-28T06:36:25;0.80;99.90
58582;DHT22;44361;51.476;5.700;2024-02-28T06:38:50;0.80;99.90
58582;DHT22;44361;51.476;5.700;2024-02-28T06:41:16;0.80;99.90
58582;DHT22;44361;51.476;5.700;2024-02-28T06:43:42;0.90;99.90
58582;DHT22;44361;51.476;5.700;2024-02-28T06:46:08;0.90;99.90
58582;DHT22;44361;51.476;5.700;2024-02-28T06:48:33;0.90;99.90
58582;DHT22;44361;51.476;5.700;2024-02-28T06:50:59;0.90;99.90
58582;DHT22;44361;51.476;5.700;2024-02-28T06:53:25;1.00;99.90
58582;DHT22;44361;51.476;5.700;2024-02-28T06:55:51;1.10;99.90
58582;DHT22;44361;51.476;5.700;2024-02-28T06:58:17;1.10;99.90
58582;DHT22;44361;51.476;5.700;2024-02-28T07:00:42;1.30;99.90
58582;DHT22;44361;51.476;5.700;2024-02-28T07:03:08;1.20;99.90
58582;DHT22;44361;51.476;5.700;2024-02-28T07:05:34;1.30;99.90
58582;DHT22;44361;51.476;5.700;2024-02-28T07:08:00;1.40;99.90
58582;DHT22;44361;51.476;5.700;2024-02-28T07:10:26;1.40;99.90
58582;DHT22;44361;51.476;5.700;2024-02-28T07:12:51;1.50;99.90
58582;DHT22;44361;51.476;5.700;2024-02-28T07:15:17;1.60;99.90
58582;DHT22;44361;51.476;5.700;2024-02-28T07:17:47;1.70;99.90
58582;DHT22;44361;51.476;5.700;2024-02-28T07:20:12;1.80;99.90
58582;DHT22;44361;51.476;5.700;2024-02-28T07:22:38;1.80;99.90
58582;DHT22;44361;51.476;5.700;2024-02-28T07:25:04;1.80;99.90
58582;DHT22;44361;51.476;5.700;2024-02-28T07:27:30;1.80;99.90
58582;DHT22;44361;51.476;5.700;2024-02-28T07:29:56;1.80;99.90
58582;DHT22;44361;51.476;5.700;2024-02-28T07:32:22;1.90;99.90
58582;DHT22;44361;51.476;5.700;2024-02-28T07:34:48;2.00;99.90
58582;DHT22;44361;51.476;5.700;2024-02-28T07:37:14;1.90;99.90
58582;DHT22;44361;51.476;5.700;2024-02-28T07:39:40;1.90;99.90
58582;DHT22;44361;51.476;5.700;2024-02-28T07:42:05;1.90;99.90
58582;DHT22;44361;51.476;5.700;2024-02-28T07:44:31;1.90;99.90
58582;DHT22;44361;51.476;5.700;2024-02-28T07:46:59;1.90;99.90
58582;DHT22;44361;51.476;5.700;2024-02-28T07:49:25;2.00;99.90
58582;DHT22;44361;51.476;5.700;2024-02-28T07:51:51;2.10;99.90
58582;DHT22;44361;51.476;5.700;2024-02-28T07:54:17;2.20;99.90
58582;DHT22;44361;51.476;5.700;2024-02-28T07:56:43;2.20;99.90
58582;DHT22;44361;51.476;5.700;2024-02-28T07:59:09;2.30;99.90
58582;DHT22;44361;51.476;5.700;2024-02-28T08:01:34;2.40;99.90
58582;DHT22;44361;51.476;5.700;2024-02-28T08:04:01;2.50;99.90
58582;DHT22;44361;51.476;5.700;2024-02-28T08:06:27;2.60;99.90
58582;DHT22;44361;51.476;5.700;2024-02-28T08:08:52;2.70;99.90
58582;DHT22;44361;51.476;5.700;2024-02-28T08:11:18;2.70;99.90
58582;DHT22;44361;51.476;5.700;2024-02-28T08:13:44;2.70;99.90
58582;DHT22;44361;51.476;5.700;2024-02-28T08:16:10;2.80;99.90
58582;DHT22;44361;51.476;5.700;2024-02-28T08:18:35;2.90;99.90
58582;DHT22;44361;51.476;5.700;2024-02-28T08:21:01;3.00;99.90
58582;DHT22;44361;51.476;5.700;2024-02-28T08:23:29;3.00;99.90
58582;DHT22;44361;51.476;5.700;2024-02-28T08:25:55;3.10;99.90
58582;DHT22;44361;51.476;5.700;2024-02-28T08:28:20;3.10;99.90
58582;DHT22;44361;51.476;5.700;2024-02-28T08:30:46;3.20;99.90
58582;DHT22;44361;51.476;5.700;2024-02-28T08:33:11;3.30;99.90
58582;DHT22;44361;51.476;5.700;2024-02-28T08:35:37;3.40;99.90
58582;DHT22;44361;51.476;5.700;2024-02-28T08:38:03;3.50;99.90
58582;DHT22;44361;51.476;5.700;2024-02-28T08:40:29;3.60;99.90
58582;DHT22;44361;51.476;5.700;2024-02-28T08:42:55;3.70;99.90
58582;DHT22;44361;51.476;5.700;2024-02-28T08:45:22;3.70;99.90
58582;DHT22;44361;51.476;5.700;2024-02-28T08:47:48;3.90;99.90
58582;DHT22;44361;51.476;5.700;2024-02-28T08:50:13;3.90;99.90
58582;DHT22;44361;51.476;5.700;2024-02-28T08:52:39;4.00;99.90
58582;DHT22;44361;51.476;5.700;2024-02-28T08:55:05;4.00;99.90
58582;DHT22;44361;51.476;5.700;2024-02-28T08:57:30;4.00;99.90
58582;DHT22;44361;51.476;5.700;2024-02-28T08:59:56;4.10;99.90
58582;DHT22;44361;51.476;5.700;2024-02-28T09:02:22;4.20;99.90
58582;DHT22;44361;51.476;5.700;2024-02-28T09:04:47;4.60;99.90
58582;DHT22;44361;51.476;5.700;2024-02-28T09:07:17;4.60;99.90
58582;DHT22;44361;51.476;5.700;2024-02-28T09:09:45;4.60;99.90
58582;DHT22;44361;51.476;5.700;2024-02-28T09:12:11;4.70;99.90
58582;DHT22;44361;51.476;5.700;2024-02-28T09:14:36;4.80;99.90
58582;DHT22;44361;51.476;5.700;2024-02-28T09:17:02;4.80;99.90
58582;DHT22;44361;51.476;5.700;2024-02-28T09:19:31;4.90;99.90
58582;DHT22;44361;51.476;5.700;2024-02-28T09:21:57;4.80;99.90
58582;DHT22;44361;51.476;5.700;2024-02-28T09:24:26;4.90;99.90
58582;DHT22;44361;51.476;5.700;2024-02-28T09:26:52;4.90;99.90
58582;DHT22;44361;51.476;5.700;2024-02-28T09:29:17;5.00;99.90
58582;DHT22;44361;51.476;5.700;2024-02-28T09:31:43;5.20;99.90
58582;DHT22;44361;51.476;5.700;2024-02-28T09:34:09;5.50;99.90
58582;DHT22;44361;51.476;5.700;2024-02-28T09:36:44;5.80;99.90
58582;DHT22;44361;51.476;5.700;2024-02-28T09:39:14;6.20;99.90
58582;DHT22;44361;51.476;5.700;2024-02-28T09:41:43;6.40;99.90
58582;DHT22;44361;51.476;5.700;2024-02-28T09:44:09;6.40;99.90
58582;DHT22;44361;51.476;5.700;2024-02-28T09:46:36;6.60;99.90
58582;DHT22;44361;51.476;5.700;2024-02-28T09:49:05;6.70;99.90
58582;DHT22;44361;51.476;5.700;2024-02-28T09:51:35;6.70;99.90
58582;DHT22;44361;51.476;5.700;2024-02-28T09:54:02;6.70;99.90
58582;DHT22;44361;51.476;5.700;2024-02-28T09:56:29;6.80;99.90
58582;DHT22;44361;51.476;5.700;2024-02-28T09:58:55;6.80;99.90
58582;DHT22;44361;51.476;5.700;2024-02-28T10:01:25;6.80;99.90
58582;DHT22;44361;51.476;5.700;2024-02-28T10:03:52;7.00;99.90
58582;DHT22;44361;51.476;5.700;2024-02-28T10:06:21;7.10;99.90
58582;DHT22;44361;51.476;5.700;2024-02-28T10:08:48;7.20;99.90
58582;DHT22;44361;51.476;5.700;2024-02-28T10:11:23;7.10;99.90
58582;DHT22;44361;51.476;5.700;2024-02-28T10:13:50;7.40;99.90
58582;DHT22;44361;51.476;5.700;2024-02-28T10:16:16;7.40;99.90
58582;DHT22;44361;51.476;5.700;2024-02-28T10:18:45;7.50;99.90
58582;DHT22;44361;51.476;5.700;2024-02-28T10:21:11;7.50;99.90
58582;DHT22;44361;51.476;5.700;2024-02-28T10:23:41;7.60;99.90
58582;DHT22;44361;51.476;5.700;2024-02-28T10:26:09;7.60;99.90
58582;DHT22;44361;51.476;5.700;2024-02-28T10:28:41;7.80;99.90
58582;DHT22;44361;51.476;5.700;2024-02-28T10:31:09;7.80;99.90
58582;DHT22;44361;51.476;5.700;2024-02-28T10:33:35;7.80;99.90
58582;DHT22;44361;51.476;5.700;2024-02-28T10:36:03;7.90;99.90
58582;DHT22;44361;51.476;5.700;2024-02-28T10:38:30;8.10;99.90
58582;DHT22;44361;51.476;5.700;2024-02-28T10:40:59;7.90;99.90
58582;DHT22;44361;51.476;5.700;2024-02-28T10:43:28;8.20;99.90
58582;DHT22;44361;51.476;5.700;2024-02-28T10:45:56;8.30;99.90
58582;DHT22;44361;51.476;5.700;2024-02-28T10:48:24;8.50;99.90
58582;DHT22;44361;51.476;5.700;2024-02-28T10:50:50;8.60;99.90
58582;DHT22;44361;51.476;5.700;2024-02-28T10:53:20;8.80;99.90
58582;DHT22;44361;51.476;5.700;2024-02-28T10:55:48;8.80;99.90
58582;DHT22;44361;51.476;5.700;2024-02-28T10:58:14;9.00;99.90
58582;DHT22;44361;51.476;5.700;2024-02-28T11:00:42;9.00;99.90
58582;DHT22;44361;51.476;5.700;2024-02-28T11:03:10;9.00;99.90
58582;DHT22;44361;51.476;5.700;2024-02-28T11:05:43;8.90;99.90
58582;DHT22;44361;51.476;5.700;2024-02-28T11:08:29;8.90;99.90
58582;DHT22;44361;51.476;5.700;2024-02-28T11:11:03;8.80;99.90
58582;DHT22;44361;51.476;5.700;2024-02-28T11:13:33;8.70;99.90
58582;DHT22;44361;51.476;5.700;2024-02-28T11:16:10;8.90;99.90
58582;DHT22;44361;51.476;5.700;2024-02-28T11:18:36;8.90;99.90
58582;DHT22;44361;51.476;5.700;2024-02-28T11:21:01;9.00;99.90
58582;DHT22;44361;51.476;5.700;2024-02-28T11:23:36;9.10;99.90
58582;DHT22;44361;51.476;5.700;2024-02-28T11:26:03;9.10;99.90
58582;DHT22;44361;51.476;5.700;2024-02-28T11:28:29;9.00;99.90
58582;DHT22;44361;51.476;5.700;2024-02-28T11:30:54;8.90;99.90
58582;DHT22;44361;51.476;5.700;2024-02-28T11:33:20;9.00;99.90
58582;DHT22;44361;51.476;5.700;2024-02-28T11:35:55;9.20;99.90
58582;DHT22;44361;51.476;5.700;2024-02-28T11:38:20;9.30;99.90
58582;DHT22;44361;51.476;5.700;2024-02-28T11:40:49;9.40;99.90
58582;DHT22;44361;51.476;5.700;2024-02-28T11:43:15;9.50;99.90
58582;DHT22;44361;51.476;5.700;2024-02-28T11:45:41;9.50;99.90
58582;DHT22;44361;51.476;5.700;2024-02-28T11:48:07;9.40;99.90
58582;DHT22;44361;51.476;5.700;2024-02-28T11:50:32;9.20;99.90
58582;DHT22;44361;51.476;5.700;2024-02-28T11:52:58;9.20;99.90
58582;DHT22;44361;51.476;5.700;2024-02-28T11:55:25;9.10;99.90
58582;DHT22;44361;51.476;5.700;2024-02-28T11:57:51;9.20;99.90
58582;DHT22;44361;51.476;5.700;2024-02-28T12:00:16;9.20;99.90
58582;DHT22;44361;51.476;5.700;2024-02-28T12:02:42;9.30;99.90
58582;DHT22;44361;51.476;5.700;2024-02-28T12:05:08;9.20;99.90
58582;DHT22;44361;51.476;5.700;2024-02-28T12:07:34;9.20;99.90
58582;DHT22;44361;51.476;5.700;2024-02-28T12:10:00;9.30;99.90
58582;DHT22;44361;51.476;5.700;2024-02-28T12:12:29;9.40;99.90
58582;DHT22;44361;51.476;5.700;2024-02-28T12:14:59;9.40;99.90
58582;DHT22;44361;51.476;5.700;2024-02-28T12:17:30;9.20;99.90
58582;DHT22;44361;51.476;5.700;2024-02-28T12:19:58;9.20;99.90
58582;DHT22;44361;51.476;5.700;2024-02-28T12:22:24;9.30;99.90
58582;DHT22;44361;51.476;5.700;2024-02-28T12:24:49;9.50;99.90
58582;DHT22;44361;51.476;5.700;2024-02-28T12:27:15;9.30;99.90
58582;DHT22;44361;51.476;5.700;2024-02-28T12:29:41;9.40;99.90
58582;DHT22;44361;51.476;5.700;2024-02-28T12:32:07;9.40;99.90
58582;DHT22;44361;51.476;5.700;2024-02-28T12:34:33;9.40;99.90
58582;DHT22;44361;51.476;5.700;2024-02-28T12:36:59;9.50;99.90
58582;DHT22;44361;51.476;5.700;2024-02-28T12:39:25;9.40;99.90
58582;DHT22;44361;51.476;5.700;2024-02-28T12:41:51;9.60;99.90
58582;DHT22;44361;51.476;5.700;2024-02-28T12:44:16;9.80;99.90
58582;DHT22;44361;51.476;5.700;2024-02-28T12:46:42;9.90;99.90
58582;DHT22;44361;51.476;5.700;2024-02-28T12:49:07;10.00;99.90
58582;DHT22;44361;51.476;5.700;2024-02-28T12:51:40;10.00;99.90
58582;DHT22;44361;51.476;5.700;2024-02-28T12:54:06;9.90;99.90
58582;DHT22;44361;51.476;5.700;2024-02-28T12:56:33;10.00;99.90
58582;DHT22;44361;51.476;5.700;2024-02-28T12:58:59;10.00;99.90
58582;DHT22;44361;51.476;5.700;2024-02-28T13:01:25;10.00;99.90
58582;DHT22;44361;51.476;5.700;2024-02-28T13:03:51;9.80;99.90
58582;DHT22;44361;51.476;5.700;2024-02-28T13:06:16;9.60;99.90
58582;DHT22;44361;51.476;5.700;2024-02-28T13:08:42;9.70;99.90
58582;DHT22;44361;51.476;5.700;2024-02-28T13:11:07;9.70;99.90
58582;DHT22;44361;51.476;5.700;2024-02-28T13:13:33;9.50;99.90
58582;DHT22;44361;51.476;5.700;2024-02-28T13:15:59;9.50;99.90
58582;DHT22;44361;51.476;5.700;2024-02-28T13:18:24;9.40;99.90
58582;DHT22;44361;51.476;5.700;2024-02-28T13:20:51;9.40;99.90
58582;DHT22;44361;51.476;5.700;2024-02-28T13:23:17;9.30;99.90
58582;DHT22;44361;51.476;5.700;2024-02-28T13:25:44;9.40;99.90
58582;DHT22;44361;51.476;5.700;2024-02-28T13:28:09;9.50;99.90
58582;DHT22;44361;51.476;5.700;2024-02-28T13:30:35;9.50;99.90
58582;DHT22;44361;51.476;5.700;2024-02-28T13:33:02;9.70;99.90
58582;DHT22;44361;51.476;5.700;2024-02-28T13:35:28;9.80;99.90
58582;DHT22;44361;51.476;5.700;2024-02-28T13:37:55;9.90;99.90
58582;DHT22;44361;51.476;5.700;2024-02-28T13:40:25;10.00;99.90
58582;DHT22;44361;51.476;5.700;2024-02-28T13:42:51;10.00;99.90
58582;DHT22;44361;51.476;5.700;2024-02-28T13:45:17;9.90;99.90
58582;DHT22;44361;51.476;5.700;2024-02-28T13:47:42;9.80;99.90
58582;DHT22;44361;51.476;5.700;2024-02-28T13:50:08;10.00;99.90
58582;DHT22;44361;51.476;5.700;2024-02-28T13:52:35;10.30;99.90
58582;DHT22;44361;51.476;5.700;2024-02-28T13:55:00;10.40;99.90
58582;DHT22;44361;51.476;5.700;2024-02-28T13:57:26;10.50;99.90
58582;DHT22;44361;51.476;5.700;2024-02-28T13:59:52;10.40;99.90
58582;DHT22;44361;51.476;5.700;2024-02-28T14:02:23;10.20;99.90
58582;DHT22;44361;51.476;5.700;2024-02-28T14:04:52;10.20;99.90
58582;DHT22;44361;51.476;5.700;2024-02-28T14:07:18;10.00;99.90
58582;DHT22;44361;51.476;5.700;2024-02-28T14:09:43;10.00;99.90
58582;DHT22;44361;51.476;5.700;2024-02-28T14:12:10;9.90;99.90
58582;DHT22;44361;51.476;5.700;2024-02-28T14:14:35;9.70;99.90
58582;DHT22;44361;51.476;5.700;2024-02-28T14:17:01;9.70;99.90
58582;DHT22;44361;51.476;5.700;2024-02-28T14:19:27;9.70;99.90
58582;DHT22;44361;51.476;5.700;2024-02-28T14:21:52;9.70;99.90
58582;DHT22;44361;51.476;5.700;2024-02-28T14:24:18;9.60;99.90
58582;DHT22;44361;51.476;5.700;2024-02-28T14:26:45;9.70;99.90
58582;DHT22;44361;51.476;5.700;2024-02-28T14:29:12;9.60;99.90
58582;DHT22;44361;51.476;5.700;2024-02-28T14:31:37;9.70;99.90
58582;DHT22;44361;51.476;5.700;2024-02-28T14:34:03;9.70;99.90
58582;DHT22;44361;51.476;5.700;2024-02-28T14:36:31;9.70;99.90
58582;DHT22;44361;51.476;5.700;2024-02-28T14:38:57;9.80;99.90
58582;DHT22;44361;51.476;5.700;2024-02-28T14:41:26;9.90;99.90
58582;DHT22;44361;51.476;5.700;2024-02-28T14:43:52;10.00;99.90
58582;DHT22;44361;51.476;5.700;2024-02-28T14:46:17;9.90;99.90
58582;DHT22;44361;51.476;5.700;2024-02-28T14:48:46;10.00;99.90
58582;DHT22;44361;51.476;5.700;2024-02-28T14:51:17;9.90;99.90
58582;DHT22;44361;51.476;5.700;2024-02-28T14:53:43;9.90;99.90
58582;DHT22;44361;51.476;5.700;2024-02-28T14:56:09;9.90;99.90
58582;DHT22;44361;51.476;5.700;2024-02-28T14:58:34;10.00;99.90
58582;DHT22;44361;51.476;5.700;2024-02-28T15:01:03;10.00;99.90
58582;DHT22;44361;51.476;5.700;2024-02-28T15:03:30;10.00;99.90
58582;DHT22;44361;51.476;5.700;2024-02-28T15:05:56;10.00;99.90
58582;DHT22;44361;51.476;5.700;2024-02-28T15:08:21;10.00;99.90
58582;DHT22;44361;51.476;5.700;2024-02-28T15:10:47;10.10;99.90
58582;DHT22;44361;51.476;5.700;2024-02-28T15:13:14;10.10;99.90
58582;DHT22;44361;51.476;5.700;2024-02-28T15:15:39;10.10;99.90
58582;DHT22;44361;51.476;5.700;2024-02-28T15:18:05;10.00;99.90
58582;DHT22;44361;51.476;5.700;2024-02-28T15:20:32;10.10;99.90
58582;DHT22;44361;51.476;5.700;2024-02-28T15:22:57;10.10;99.90
58582;DHT22;44361;51.476;5.700;2024-02-28T15:25:24;10.10;99.90
58582;DHT22;44361;51.476;5.700;2024-02-28T15:27:50;10.10;99.90
58582;DHT22;44361;51.476;5.700;2024-02-28T15:30:15;10.10;99.90
58582;DHT22;44361;51.476;5.700;2024-02-28T15:32:41;10.10;99.90
58582;DHT22;44361;51.476;5.700;2024-02-28T15:35:08;10.00;99.90
58582;DHT22;44361;51.476;5.700;2024-02-28T15:37:33;9.90;99.90
58582;DHT22;44361;51.476;5.700;2024-02-28T15:40:01;9.90;99.90